createdAt,value
2019-02-15T00:00:16.575Z,102731.87
2019-02-15T00:02:46.048Z,102724.28
2019-02-15T00:05:15.309Z,102732.74
2019-02-15T00:07:44.693Z,102726.13
2019-02-15T00:10:14.458Z,102729.19
2019-02-15T00:12:43.774Z,102733.48
2019-02-15T00:15:13.238Z,102726.33
2019-02-15T00:17:52.690Z,102728.00
2019-02-15T00:20:35.580Z,102724.41
2019-02-15T00:23:04.960Z,102724.83
2019-02-15T00:25:34.235Z,102722.81
2019-02-15T00:28:03.632Z,102719.95
2019-02-15T00:30:33.052Z,102720.05
2019-02-15T00:33:02.367Z,102715.87
2019-02-15T00:35:31.653Z,102723.54
2019-02-15T00:38:00.983Z,102721.48
2019-02-15T00:40:30.276Z,102722.75
2019-02-15T00:42:59.561Z,102725.84
2019-02-15T00:45:30.916Z,102727.08
2019-02-15T00:48:04.610Z,102721.91
2019-02-15T00:50:38.441Z,102722.59
2019-02-15T00:53:12.303Z,102720.09
2019-02-15T00:55:49.291Z,102723.88
2019-02-15T00:58:20.393Z,102727.34
2019-02-15T01:01:00.289Z,102733.86
2019-02-15T01:03:43.590Z,102731.05
2019-02-15T01:06:20.549Z,102736.41
2019-02-15T01:08:51.606Z,102738.73
2019-02-15T01:11:22.526Z,102731.97
2019-02-15T01:13:51.918Z,102732.63
2019-02-15T01:16:21.262Z,102733.45
2019-02-15T01:18:50.659Z,102734.70
2019-02-15T01:21:19.969Z,102729.23
2019-02-15T01:23:49.311Z,102721.27
2019-02-15T01:26:32.126Z,102722.98
2019-02-15T01:29:05.813Z,102715.74
2019-02-15T01:31:48.777Z,102718.80
2019-02-15T01:34:22.700Z,102717.45
2019-02-15T01:36:53.762Z,102719.95
2019-02-15T01:39:27.265Z,102715.71
2019-02-15T01:41:58.188Z,102706.67
2019-02-15T01:44:37.563Z,102703.33
2019-02-15T01:47:08.752Z,102700.39
2019-02-15T01:49:38.071Z,102701.64
2019-02-15T01:52:07.366Z,102702.13
2019-02-15T01:54:36.696Z,102696.01
2019-02-15T01:57:05.999Z,102697.78
2019-02-15T01:59:35.585Z,102695.29
2019-02-15T02:02:04.892Z,102691.48
2019-02-15T02:04:34.736Z,102681.33
2019-02-15T02:07:04.081Z,102678.92
2019-02-15T02:09:33.413Z,102675.84
2019-02-15T02:12:03.228Z,102679.34
2019-02-15T02:14:32.516Z,102673.23
2019-02-15T02:17:01.820Z,102670.98
2019-02-15T02:19:31.228Z,102665.84
2019-02-15T02:22:00.690Z,102665.75
2019-02-15T02:24:30.060Z,102662.75
2019-02-15T02:26:59.382Z,102662.82
2019-02-15T02:29:28.747Z,102661.38
2019-02-15T02:31:58.155Z,102660.48
2019-02-15T02:34:27.536Z,102651.75
2019-02-15T02:36:57.217Z,102650.54
2019-02-15T02:39:26.623Z,102655.81
2019-02-15T02:41:55.999Z,102652.81
2019-02-15T02:44:25.343Z,102648.55
2019-02-15T02:46:54.734Z,102649.42
2019-02-15T02:49:24.226Z,102645.94
2019-02-15T02:51:53.550Z,102645.73
2019-02-15T02:54:22.930Z,102650.64
2019-02-15T02:56:52.296Z,102654.88
2019-02-15T02:59:21.731Z,102648.73
2019-02-15T03:01:51.098Z,102645.68
2019-02-15T03:04:20.505Z,102644.63
2019-02-15T03:06:49.770Z,102641.25
2019-02-15T03:09:19.100Z,102641.01
2019-02-15T03:11:48.353Z,102640.70
2019-02-15T03:14:17.721Z,102640.70
2019-02-15T03:16:47.041Z,102643.06
2019-02-15T03:19:16.338Z,102644.00
2019-02-15T03:21:45.626Z,102642.94
2019-02-15T03:24:15.049Z,102641.73
2019-02-15T03:26:44.419Z,102640.81
2019-02-15T03:29:13.805Z,102634.33
2019-02-15T03:31:43.547Z,102632.25
2019-02-15T03:34:12.855Z,102632.00
2019-02-15T03:36:43.826Z,102635.65
2019-02-15T03:39:29.800Z,102628.45
2019-02-15T03:41:59.589Z,102628.05
2019-02-15T03:44:28.921Z,102623.34
2019-02-15T03:46:58.284Z,102619.52
2019-02-15T03:49:27.589Z,102624.27
2019-02-15T03:51:57.144Z,102621.38
2019-02-15T03:54:26.522Z,102629.11
2019-02-15T03:56:55.931Z,102629.61
2019-02-15T03:59:25.447Z,102624.25
2019-02-15T04:01:54.854Z,102627.61
2019-02-15T04:04:24.139Z,102626.08
2019-02-15T04:06:53.444Z,102626.89
2019-02-15T04:09:22.949Z,102628.48
2019-02-15T04:11:52.237Z,102631.35
2019-02-15T04:14:32.260Z,102634.38
2019-02-15T04:16:53.093Z,102634.91
2019-02-15T04:19:22.434Z,102635.52
2019-02-15T04:21:51.802Z,102636.20
2019-02-15T04:24:21.100Z,102636.55
2019-02-15T04:26:50.818Z,102637.86
2019-02-15T04:29:20.121Z,102639.42
2019-02-15T04:31:49.530Z,102642.69
2019-02-15T04:34:18.890Z,102635.75
2019-02-15T04:36:48.191Z,102635.52
2019-02-15T04:39:17.524Z,102632.97
2019-02-15T04:41:46.859Z,102632.30
2019-02-15T04:44:16.299Z,102631.09
2019-02-15T04:46:45.659Z,102632.73
2019-02-15T04:49:15.104Z,102629.64
2019-02-15T04:51:44.506Z,102641.59
2019-02-15T04:54:13.837Z,102632.98
2019-02-15T04:56:43.224Z,102633.95
2019-02-15T04:59:12.516Z,102632.20
2019-02-15T05:01:41.836Z,102633.63
2019-02-15T05:04:11.178Z,102630.36
2019-02-15T05:06:40.722Z,102634.61
2019-02-15T05:09:10.097Z,102634.26
2019-02-15T05:11:39.529Z,102631.53
2019-02-15T05:14:08.935Z,102622.87
2019-02-15T05:16:38.287Z,102619.50
2019-02-15T05:19:07.632Z,102619.56
2019-02-15T05:21:36.999Z,102619.50
2019-02-15T05:24:06.319Z,102619.85
2019-02-15T05:26:35.678Z,102618.43
2019-02-15T05:29:05.010Z,102613.75
2019-02-15T05:31:34.268Z,102615.38
2019-02-15T05:34:03.660Z,102615.03
2019-02-15T05:36:33.023Z,102614.89
2019-02-15T05:39:02.336Z,102614.36
2019-02-15T05:41:31.846Z,102609.92
2019-02-15T05:44:01.146Z,102615.06
2019-02-15T05:46:30.527Z,102620.29
2019-02-15T05:48:59.863Z,102616.16
2019-02-15T05:51:29.170Z,102620.09
2019-02-15T05:53:58.889Z,102612.39
2019-02-15T05:56:28.299Z,102619.09
2019-02-15T05:58:57.726Z,102617.94
2019-02-15T06:01:27.986Z,102624.70
2019-02-15T06:03:57.533Z,102628.22
2019-02-15T06:06:26.900Z,102626.80
2019-02-15T06:08:56.259Z,102628.08
2019-02-15T06:11:25.548Z,102634.91
2019-02-15T06:13:54.903Z,102630.34
2019-02-15T06:16:24.570Z,102628.07
2019-02-15T06:18:53.848Z,102625.45
2019-02-15T06:21:23.287Z,102625.36
2019-02-15T06:23:52.602Z,102631.34
2019-02-15T06:26:22.049Z,102624.95
2019-02-15T06:28:51.339Z,102628.88
2019-02-15T06:31:20.817Z,102627.58
2019-02-15T06:33:50.164Z,102633.59
2019-02-15T06:36:19.508Z,102633.83
2019-02-15T06:38:48.931Z,102635.42
2019-02-15T06:41:18.390Z,102635.27
2019-02-15T06:43:48.073Z,102640.33
2019-02-15T06:46:17.923Z,102643.75
2019-02-15T06:48:47.285Z,102647.48
2019-02-15T06:51:16.569Z,102647.73
2019-02-15T06:53:45.890Z,102651.41
2019-02-15T06:56:15.161Z,102650.17
2019-02-15T06:58:46.159Z,102651.06
2019-02-15T07:01:17.269Z,102649.28
2019-02-15T07:03:53.906Z,102652.06
2019-02-15T07:06:23.232Z,102652.88
2019-02-15T07:08:52.835Z,102663.49
2019-02-15T07:11:22.304Z,102660.34
2019-02-15T07:13:51.593Z,102669.47
2019-02-15T07:16:21.154Z,102671.80
2019-02-15T07:18:50.502Z,102673.11
2019-02-15T07:21:19.795Z,102676.84
2019-02-15T07:23:49.094Z,102673.48
2019-02-15T07:26:18.602Z,102672.54
2019-02-15T07:28:48.014Z,102676.83
2019-02-15T07:31:17.386Z,102673.65
2019-02-15T07:33:46.728Z,102675.45
2019-02-15T07:36:16.110Z,102673.25
2019-02-15T07:38:45.475Z,102672.64
2019-02-15T07:41:14.958Z,102666.81
2019-02-15T07:43:44.259Z,102664.31
2019-02-15T07:46:13.569Z,102663.91
2019-02-15T07:48:43.116Z,102655.59
2019-02-15T07:51:12.632Z,102665.52
2019-02-15T07:53:41.935Z,102591.45
2019-02-15T07:56:11.227Z,102657.37
2019-02-15T07:58:40.571Z,102654.25
2019-02-15T08:01:09.932Z,102655.80
2019-02-15T08:03:39.214Z,102656.98
2019-02-15T08:06:08.759Z,102656.98
2019-02-15T08:08:38.161Z,102662.19
2019-02-15T08:11:07.653Z,102657.05
2019-02-15T08:13:37.028Z,102656.45
2019-02-15T08:16:06.851Z,102656.45
2019-02-15T08:18:36.142Z,102651.56
2019-02-15T08:21:05.596Z,102651.56
2019-02-15T08:23:35.149Z,102649.31
2019-02-15T08:26:04.577Z,102645.47
2019-02-15T08:28:34.124Z,102646.94
2019-02-15T08:31:03.673Z,102648.45
2019-02-15T08:33:33.055Z,102648.45
2019-02-15T08:36:02.379Z,102633.86
2019-02-15T08:38:31.683Z,102627.66
2019-02-15T08:41:01.027Z,102627.66
2019-02-15T08:43:30.321Z,102627.04
2019-02-15T08:46:02.709Z,102626.86
2019-02-15T08:48:30.712Z,102626.49
2019-02-15T08:51:00.021Z,102619.41
2019-02-15T08:53:29.543Z,102613.56
2019-02-15T08:55:58.847Z,102612.63
2019-02-15T08:58:28.207Z,102612.16
2019-02-15T09:00:57.688Z,102605.34
2019-02-15T09:03:26.972Z,102606.44
2019-02-15T09:05:56.308Z,102605.84
2019-02-15T09:08:25.615Z,102602.58
2019-02-15T09:10:54.932Z,102596.14
2019-02-15T09:13:24.219Z,102598.03
2019-02-15T09:15:53.648Z,102591.05
2019-02-15T09:18:23.190Z,102588.53
2019-02-15T09:20:52.486Z,102584.11
2019-02-15T09:23:21.762Z,102583.13
2019-02-15T09:25:51.408Z,102582.83
2019-02-15T09:28:31.341Z,102578.81
2019-02-15T09:31:00.723Z,102576.47
2019-02-15T09:33:29.992Z,102575.45
2019-02-15T09:35:59.302Z,102568.54
2019-02-15T09:38:28.582Z,102570.56
2019-02-15T09:40:57.889Z,102564.17
2019-02-15T09:43:27.194Z,102553.57
2019-02-15T09:45:56.528Z,102548.13
2019-02-15T09:48:25.844Z,102555.01
2019-02-15T09:50:55.163Z,102555.13
2019-02-15T09:53:24.444Z,102552.97
2019-02-15T09:55:53.753Z,102553.73
2019-02-15T09:58:23.056Z,102555.70
2019-02-15T10:00:52.449Z,102554.66
2019-02-15T10:03:21.772Z,102547.03
2019-02-15T10:05:51.074Z,102539.00
2019-02-15T10:08:20.397Z,102538.19
2019-02-15T10:10:49.763Z,102544.77
2019-02-15T10:13:19.225Z,102537.47
2019-02-15T10:15:48.511Z,102530.25
2019-02-15T10:18:17.995Z,102532.38
2019-02-15T10:20:47.372Z,102532.58
2019-02-15T10:23:16.653Z,102533.69
2019-02-15T10:25:46.357Z,102538.83
2019-02-15T10:28:15.647Z,102536.92
2019-02-15T10:30:45.037Z,102539.35
2019-02-15T10:33:14.425Z,102536.84
2019-02-15T10:35:43.850Z,102543.82
2019-02-15T10:38:13.149Z,102532.53
2019-02-15T10:40:42.515Z,102536.95
2019-02-15T10:43:11.880Z,102532.47
2019-02-15T10:45:41.215Z,102528.56
2019-02-15T10:48:10.818Z,102525.74
2019-02-15T10:50:40.209Z,102515.98
2019-02-15T10:53:10.986Z,102514.66
2019-02-15T10:55:40.666Z,102522.27
2019-02-15T10:58:09.981Z,102522.52
2019-02-15T11:00:39.354Z,102510.98
2019-02-15T11:03:08.670Z,102498.80
2019-02-15T11:05:38.223Z,102498.81
2019-02-15T11:08:07.681Z,102494.41
2019-02-15T11:10:37.096Z,102505.28
2019-02-15T11:13:06.387Z,102487.95
2019-02-15T11:15:35.746Z,102498.48
2019-02-15T11:18:05.049Z,102491.89
2019-02-15T11:20:34.381Z,102498.88
2019-02-15T11:23:03.734Z,102488.33
2019-02-15T11:25:33.042Z,102479.19
2019-02-15T11:28:02.328Z,102478.25
2019-02-15T11:30:31.632Z,102476.41
2019-02-15T11:33:00.975Z,102471.38
2019-02-15T11:35:30.304Z,102474.78
2019-02-15T11:37:59.655Z,102470.41
2019-02-15T11:40:29.161Z,102479.23
2019-02-15T11:42:58.436Z,102474.66
2019-02-15T11:45:27.867Z,102467.00
2019-02-15T11:47:57.195Z,102457.34
2019-02-15T11:50:26.800Z,102461.59
2019-02-15T11:52:56.098Z,102455.03
2019-02-15T11:55:25.709Z,102445.03
2019-02-15T11:57:55.023Z,102435.39
2019-02-15T12:00:28.861Z,102431.13
2019-02-15T12:02:58.228Z,102429.58
2019-02-15T12:05:27.771Z,102422.27
2019-02-15T12:07:57.086Z,102426.36
2019-02-15T12:10:26.533Z,102423.25
2019-02-15T12:12:55.824Z,102412.99
2019-02-15T12:15:25.118Z,102410.40
2019-02-15T12:17:54.548Z,102405.25
2019-02-15T12:20:23.891Z,102415.11
2019-02-15T12:22:53.403Z,102403.39
2019-02-15T12:25:22.681Z,102399.14
2019-02-15T12:27:51.990Z,102401.79
2019-02-15T12:30:21.278Z,102395.64
2019-02-15T12:32:50.621Z,102379.95
2019-02-15T12:35:19.928Z,102382.73
2019-02-15T12:37:49.228Z,102391.10
2019-02-15T12:40:18.515Z,102377.32
2019-02-15T12:42:47.820Z,102381.82
2019-02-15T12:45:17.503Z,102369.20
2019-02-15T12:47:46.808Z,102379.05
2019-02-15T12:50:18.644Z,102370.30
2019-02-15T12:52:47.952Z,102363.06
2019-02-15T12:55:17.341Z,102361.48
2019-02-15T12:57:46.659Z,102357.65
2019-02-15T13:00:17.383Z,102346.94
2019-02-15T13:02:46.753Z,102348.13
2019-02-15T13:05:16.068Z,102337.56
2019-02-15T13:07:45.350Z,102338.23
2019-02-15T13:10:16.386Z,102336.19
2019-02-15T13:12:45.672Z,102333.50
2019-02-15T13:15:15.101Z,102329.53
2019-02-15T13:17:44.395Z,102322.99
2019-02-15T13:20:13.760Z,102317.55
2019-02-15T13:22:43.047Z,102318.49
2019-02-15T13:25:12.496Z,102306.70
2019-02-15T13:27:42.008Z,102301.60
2019-02-15T13:30:13.928Z,102299.95
2019-02-15T13:32:44.321Z,102295.58
2019-02-15T13:35:16.935Z,102290.20
2019-02-15T13:37:46.230Z,102290.28
2019-02-15T13:40:15.555Z,102286.81
2019-02-15T13:42:44.861Z,102292.05
2019-02-15T13:45:14.245Z,102278.42
2019-02-15T13:47:43.554Z,102278.73
2019-02-15T13:50:14.702Z,102269.38
2019-02-15T13:52:44.166Z,102272.55
2019-02-15T13:55:13.560Z,102264.99
2019-02-15T13:57:42.820Z,102272.06
2019-02-15T14:00:14.169Z,102265.09
2019-02-15T14:02:43.447Z,102267.09
2019-02-15T14:05:13.393Z,102264.14
2019-02-15T14:07:42.843Z,102261.86
2019-02-15T14:10:13.461Z,102252.38
2019-02-15T14:12:43.401Z,102264.19
2019-02-15T14:15:13.358Z,102259.63
2019-02-15T14:17:45.513Z,102252.94
2019-02-15T14:20:15.251Z,102242.17
2019-02-15T14:22:44.549Z,102246.20
2019-02-15T14:25:14.372Z,102242.42
2019-02-15T14:27:43.669Z,102234.95
2019-02-15T14:30:14.165Z,102231.28
2019-02-15T14:32:43.459Z,102236.88
2019-02-15T14:35:14.280Z,102231.62
2019-02-15T14:37:43.597Z,102228.06
2019-02-15T14:40:13.933Z,102228.45
2019-02-15T14:42:43.347Z,102221.13
2019-02-15T14:45:13.474Z,102222.42
2019-02-15T14:47:42.923Z,102210.52
2019-02-15T14:50:12.372Z,102213.48
2019-02-15T14:52:42.032Z,102219.12
2019-02-15T14:55:11.723Z,102208.98
2019-02-15T14:57:41.097Z,102213.13
2019-02-15T15:00:12.588Z,102205.83
2019-02-15T15:02:42.359Z,102200.55
2019-02-15T15:05:13.286Z,102203.13
2019-02-15T15:07:43.127Z,102202.27
2019-02-15T15:10:12.978Z,102204.75
2019-02-15T15:12:42.611Z,102143.05
2019-02-15T15:15:16.507Z,102184.56
2019-02-15T15:17:45.866Z,102188.48
2019-02-15T15:20:15.201Z,102186.89
2019-02-15T15:22:44.542Z,102174.95
2019-02-15T15:25:15.779Z,102172.05
2019-02-15T15:27:45.390Z,102173.52
2019-02-15T15:30:16.194Z,102166.41
2019-02-15T15:32:45.662Z,102171.61
2019-02-15T15:35:15.035Z,102168.80
2019-02-15T15:37:44.427Z,102165.78
2019-02-15T15:40:16.778Z,102163.52
2019-02-15T15:42:46.325Z,102154.22
2019-02-15T15:45:15.643Z,102154.70
2019-02-15T15:47:44.930Z,102156.80
2019-02-15T15:50:14.738Z,102157.03
2019-02-15T15:52:44.019Z,102148.17
2019-02-15T15:55:14.288Z,102148.59
2019-02-15T15:57:43.569Z,102149.19
2019-02-15T16:00:14.713Z,102151.70
2019-02-15T16:02:44.064Z,102148.56
2019-02-15T16:05:13.692Z,102144.98
2019-02-15T16:07:43.801Z,102147.66
2019-02-15T16:10:15.004Z,102147.13
2019-02-15T16:12:44.289Z,102145.09
2019-02-15T16:15:14.632Z,102145.67
2019-02-15T16:17:43.916Z,102144.64
2019-02-15T16:20:14.005Z,102143.31
2019-02-15T16:22:43.288Z,102140.62
2019-02-15T16:25:12.656Z,102138.59
2019-02-15T16:27:43.485Z,102141.20
2019-02-15T16:30:14.720Z,102141.25
2019-02-15T16:32:44.021Z,102134.86
2019-02-15T16:35:13.446Z,102134.59
2019-02-15T16:37:42.757Z,102131.25
2019-02-15T16:40:14.147Z,102135.45
2019-02-15T16:42:43.492Z,102134.41
2019-02-15T16:45:15.049Z,102137.31
2019-02-15T16:47:44.427Z,102142.45
2019-02-15T16:50:14.104Z,102139.56
2019-02-15T16:52:43.609Z,102140.28
2019-02-15T16:55:13.549Z,102145.76
2019-02-15T16:57:43.088Z,102144.17
2019-02-15T17:00:14.103Z,102151.05
2019-02-15T17:02:43.422Z,102147.45
2019-02-15T17:05:13.709Z,102148.61
2019-02-15T17:07:45.716Z,102150.06
2019-02-15T17:10:15.415Z,102149.05
2019-02-15T17:12:44.706Z,102153.44
2019-02-15T17:15:15.225Z,102151.59
2019-02-15T17:17:44.566Z,102147.45
2019-02-15T17:20:14.103Z,102157.44
2019-02-15T17:22:43.463Z,102155.37
2019-02-15T17:25:12.958Z,102154.23
2019-02-15T17:27:42.279Z,102162.56
2019-02-15T17:30:12.227Z,102157.41
2019-02-15T17:32:41.637Z,102159.80
2019-02-15T17:35:11.765Z,102157.94
2019-02-15T17:37:41.052Z,102157.80
2019-02-15T17:40:15.607Z,102153.30
2019-02-15T17:42:44.879Z,102150.11
2019-02-15T17:45:14.416Z,102156.05
2019-02-15T17:47:43.741Z,102149.12
2019-02-15T17:50:13.265Z,102148.56
2019-02-15T17:52:42.589Z,102146.14
2019-02-15T17:55:11.948Z,102144.98
2019-02-15T17:57:41.399Z,102144.33
2019-02-15T18:00:12.953Z,102135.23
2019-02-15T18:02:42.248Z,102135.64
2019-02-15T18:05:17.542Z,102131.81
2019-02-15T18:07:50.631Z,102126.77
2019-02-15T18:10:20.025Z,102131.63
2019-02-15T18:12:49.307Z,102132.00
2019-02-15T18:15:18.593Z,102129.98
2019-02-15T18:17:47.911Z,102121.66
2019-02-15T18:20:17.217Z,102128.91
2019-02-15T18:22:46.500Z,102139.77
2019-02-15T18:25:15.953Z,102135.56
2019-02-15T18:27:45.247Z,102137.21
2019-02-15T18:30:16.017Z,102137.98
2019-02-15T18:32:45.312Z,102134.28
2019-02-15T18:35:14.841Z,102140.18
2019-02-15T18:37:44.132Z,102131.63
2019-02-15T18:40:13.502Z,102126.33
2019-02-15T18:42:42.840Z,102128.20
2019-02-15T18:45:14.157Z,102132.36
2019-02-15T18:47:43.473Z,102130.80
2019-02-15T18:50:12.818Z,102133.03
2019-02-15T18:52:42.152Z,102125.97
2019-02-15T18:55:11.967Z,102121.45
2019-02-15T18:57:41.301Z,102132.54
2019-02-15T19:00:14.610Z,102129.83
2019-02-15T19:02:45.555Z,102132.80
2019-02-15T19:05:21.009Z,102122.94
2019-02-15T19:07:50.307Z,102128.95
2019-02-15T19:10:23.128Z,102128.09
2019-02-15T19:12:52.470Z,102129.70
2019-02-15T19:15:21.850Z,102122.74
2019-02-15T19:17:51.194Z,102130.89
2019-02-15T19:20:20.483Z,102122.66
2019-02-15T19:22:49.827Z,102122.16
2019-02-15T19:25:20.469Z,102118.98
2019-02-15T19:27:50.057Z,102119.41
2019-02-15T19:30:22.598Z,102118.09
2019-02-15T19:32:52.060Z,102109.51
2019-02-15T19:35:21.367Z,102117.63
2019-02-15T19:37:50.884Z,102113.53
2019-02-15T19:40:20.632Z,102100.10
2019-02-15T19:42:53.149Z,102103.05
2019-02-15T19:45:22.551Z,102097.10
2019-02-15T19:47:52.199Z,102109.94
2019-02-15T19:50:21.501Z,102103.97
2019-02-15T19:52:50.956Z,102102.56
2019-02-15T19:55:20.262Z,102102.09
2019-02-15T19:57:49.685Z,102099.45
2019-02-15T20:00:20.044Z,102099.28
2019-02-15T20:02:49.342Z,102098.73
2019-02-15T20:05:18.691Z,102104.72
2019-02-15T20:07:48.506Z,102103.39
2019-02-15T20:10:22.503Z,102097.59
2019-02-15T20:12:51.792Z,102106.56
2019-02-15T20:15:21.164Z,102096.94
2019-02-15T20:17:50.543Z,102095.33
2019-02-15T20:20:19.860Z,102095.25
2019-02-15T20:22:50.033Z,102098.09
2019-02-15T20:25:19.469Z,102104.31
2019-02-15T20:27:48.739Z,102101.49
2019-02-15T20:30:20.297Z,102106.20
2019-02-15T20:32:49.659Z,102106.20
2019-02-15T20:35:19.099Z,102101.12
2019-02-15T20:37:48.614Z,102101.28
2019-02-15T20:40:18.092Z,102104.70
2019-02-15T20:42:47.602Z,102106.19
2019-02-15T20:45:21.727Z,102104.28
2019-02-15T20:47:51.092Z,102103.05
2019-02-15T20:50:20.757Z,102103.05
2019-02-15T20:52:50.161Z,102102.81
2019-02-15T20:55:20.685Z,102113.06
2019-02-15T20:57:49.991Z,102113.06
2019-02-15T21:00:22.371Z,102107.66
2019-02-15T21:02:51.822Z,102110.05
2019-02-15T21:05:21.354Z,102107.63
2019-02-15T21:07:50.660Z,102104.06
2019-02-15T21:10:20.140Z,102107.53
2019-02-15T21:12:49.472Z,102098.69
2019-02-15T21:15:18.765Z,102107.92
2019-02-15T21:17:48.222Z,102120.36
2019-02-15T21:20:17.974Z,102098.24
2019-02-15T21:22:47.278Z,102105.25
2019-02-15T21:25:17.922Z,102096.55
2019-02-15T21:27:47.222Z,102105.79
2019-02-15T21:30:18.294Z,102106.06
2019-02-15T21:32:47.536Z,102104.83
2019-02-15T21:35:16.949Z,102099.44
2019-02-15T21:37:47.897Z,102096.34
2019-02-15T21:40:19.007Z,102093.12
2019-02-15T21:42:48.418Z,102098.69
2019-02-15T21:45:19.771Z,102096.55
2019-02-15T21:47:52.041Z,102104.30
2019-02-15T21:50:21.330Z,102096.48
2019-02-15T21:52:50.751Z,102094.12
2019-02-15T21:55:20.434Z,102092.27
2019-02-15T21:57:49.699Z,102089.02
2019-02-15T22:00:21.604Z,102080.73
2019-02-15T22:02:50.943Z,102078.73
2019-02-15T22:05:20.371Z,102075.57
2019-02-15T22:07:49.680Z,102078.09
2019-02-15T22:10:18.998Z,102075.34
2019-02-15T22:12:48.384Z,102067.66
2019-02-15T22:15:18.361Z,102072.06
2019-02-15T22:17:48.474Z,102073.58
2019-02-15T22:20:26.323Z,102069.03
2019-02-15T22:22:49.562Z,102062.55
2019-02-15T22:25:19.013Z,102066.02
2019-02-15T22:27:48.331Z,102068.25
2019-02-15T22:30:19.408Z,102057.92
2019-02-15T22:32:48.720Z,102060.12
2019-02-15T22:35:18.148Z,102069.27
2019-02-15T22:37:47.570Z,102065.73
2019-02-15T22:40:29.374Z,102068.63
2019-02-15T22:43:07.346Z,102073.73
2019-02-15T22:45:36.761Z,102078.06
2019-02-15T22:48:06.516Z,102078.80
2019-02-15T22:50:36.507Z,102078.84
2019-02-15T22:53:05.995Z,102077.30
2019-02-15T22:55:35.745Z,102073.66
2019-02-15T22:58:05.210Z,102070.58
2019-02-15T23:00:51.276Z,102064.02
2019-02-15T23:03:23.287Z,102069.65
2019-02-15T23:05:52.801Z,102075.91
2019-02-15T23:08:22.165Z,102064.41
2019-02-15T23:10:51.785Z,102069.45
2019-02-15T23:13:21.104Z,102065.09
2019-02-15T23:15:50.918Z,102065.09
2019-02-15T23:18:20.337Z,102068.27
2019-02-15T23:20:49.899Z,102065.14
2019-02-15T23:23:19.222Z,102071.81
2019-02-15T23:25:48.751Z,102074.06
2019-02-15T23:28:18.037Z,102062.99
2019-02-15T23:30:47.353Z,102062.99
2019-02-15T23:33:16.647Z,102067.17
2019-02-15T23:35:45.978Z,102067.17
2019-02-15T23:38:15.391Z,102063.53
2019-02-15T23:40:44.686Z,102057.73
2019-02-15T23:43:14.002Z,102051.77
2019-02-15T23:45:44.953Z,102051.77
2019-02-15T23:48:14.778Z,102062.99
2019-02-15T23:50:44.256Z,102063.42
2019-02-15T23:53:13.587Z,102063.42
2019-02-15T23:55:42.882Z,102061.27
2019-02-15T23:58:12.214Z,102060.11
